createdAt,value
2018-03-06T00:01:43.509Z,49.40
2018-03-06T00:04:12.536Z,49.08
2018-03-06T00:06:40.788Z,48.15
2018-03-06T00:09:09.052Z,47.62
2018-03-06T00:11:38.066Z,48.95
2018-03-06T00:14:06.325Z,49.55
2018-03-06T00:16:35.342Z,48.78
2018-03-06T00:19:03.607Z,51.17
2018-03-06T00:21:31.870Z,47.47
2018-03-06T00:24:00.884Z,52.13
2018-03-06T00:26:29.140Z,50.15
2018-03-06T00:28:58.157Z,48.00
2018-03-06T00:31:26.405Z,48.50
2018-03-06T00:33:55.433Z,51.03
2018-03-06T00:36:23.686Z,51.65
2018-03-06T00:38:51.952Z,53.08
2018-03-06T00:41:21.293Z,49.83
2018-03-06T00:43:49.545Z,52.33
2018-03-06T00:46:17.807Z,51.70
2018-03-06T00:48:46.817Z,52.03
2018-03-06T00:51:15.080Z,53.63
2018-03-06T00:53:43.336Z,52.65
2018-03-06T00:56:12.357Z,50.72
2018-03-06T00:58:40.610Z,51.75
2018-03-06T01:01:09.631Z,51.95
2018-03-06T01:03:37.886Z,50.50
2018-03-06T01:06:06.908Z,52.90
2018-03-06T01:08:35.149Z,51.95
2018-03-06T01:11:04.180Z,50.60
2018-03-06T01:13:32.416Z,48.50
2018-03-06T01:16:01.450Z,49.88
2018-03-06T01:18:29.703Z,53.47
2018-03-06T01:20:57.958Z,49.97
2018-03-06T01:23:26.974Z,48.97
2018-03-06T01:25:55.222Z,51.30
2018-03-06T01:28:24.254Z,47.70
2018-03-06T01:30:52.510Z,48.03
2018-03-06T01:33:20.769Z,53.33
2018-03-06T01:35:49.787Z,55.97
2018-03-06T01:38:18.047Z,53.00
2018-03-06T01:40:47.063Z,51.90
2018-03-06T01:43:15.317Z,55.97
2018-03-06T01:45:43.571Z,57.20
2018-03-06T01:48:11.837Z,53.80
2018-03-06T01:50:40.097Z,55.85
2018-03-06T01:53:08.362Z,54.40
2018-03-06T01:55:36.625Z,59.47
2018-03-06T01:58:04.886Z,56.92
2018-03-06T02:00:33.154Z,58.10
2018-03-06T02:03:01.423Z,61.55
2018-03-06T02:05:30.441Z,58.35
2018-03-06T02:07:58.718Z,54.28
2018-03-06T02:10:26.977Z,57.22
2018-03-06T02:12:55.241Z,55.85
2018-03-06T02:15:24.274Z,51.58
2018-03-06T02:17:52.532Z,56.72
2018-03-06T02:20:20.802Z,56.60
2018-03-06T02:22:49.057Z,55.60
2018-03-06T02:25:18.098Z,53.83
2018-03-06T02:27:46.355Z,57.75
2018-03-06T02:30:14.619Z,54.63
2018-03-06T02:32:42.874Z,56.55
2018-03-06T02:35:11.909Z,59.80
2018-03-06T02:37:40.166Z,59.60
2018-03-06T02:40:08.426Z,57.67
2018-03-06T02:42:37.451Z,58.72
2018-03-06T02:45:05.716Z,59.13
2018-03-06T02:47:33.970Z,60.05
2018-03-06T02:50:02.998Z,54.47
2018-03-06T02:52:31.251Z,59.05
2018-03-06T02:54:59.514Z,58.08
2018-03-06T02:57:28.539Z,56.40
2018-03-06T02:59:56.799Z,58.30
2018-03-06T03:02:25.059Z,56.78
2018-03-06T03:04:54.083Z,56.22
2018-03-06T03:07:22.350Z,54.05
2018-03-06T03:09:50.609Z,54.95
2018-03-06T03:12:19.649Z,55.12
2018-03-06T03:14:48.675Z,57.03
2018-03-06T03:17:16.955Z,55.67
2018-03-06T03:19:45.213Z,53.80
2018-03-06T03:22:13.481Z,55.58
2018-03-06T03:24:41.742Z,54.45
2018-03-06T03:27:10.007Z,53.70
2018-03-06T03:29:38.267Z,54.83
2018-03-06T03:32:06.534Z,53.55
2018-03-06T03:34:34.795Z,56.17
2018-03-06T03:37:03.818Z,56.42
2018-03-06T03:39:32.074Z,57.67
2018-03-06T03:42:00.348Z,55.22
2018-03-06T03:44:29.364Z,59.30
2018-03-06T03:46:57.633Z,56.53
2018-03-06T03:49:25.896Z,56.22
2018-03-06T03:51:54.923Z,55.78
2018-03-06T03:54:23.183Z,55.83
2018-03-06T03:56:51.450Z,55.97
2018-03-06T03:59:19.703Z,54.03
2018-03-06T04:01:48.732Z,56.03
2018-03-06T04:04:17.038Z,57.40
2018-03-06T04:06:45.257Z,59.72
2018-03-06T04:09:14.286Z,61.63
2018-03-06T04:11:42.547Z,61.13
2018-03-06T04:14:10.810Z,59.00
2018-03-06T04:16:39.069Z,53.97
2018-03-06T04:19:08.092Z,58.85
2018-03-06T04:21:36.346Z,56.95
2018-03-06T04:24:05.370Z,55.33
2018-03-06T04:26:33.626Z,50.70
2018-03-06T04:29:01.875Z,57.25
2018-03-06T04:31:30.910Z,52.20
2018-03-06T04:33:59.163Z,55.58
2018-03-06T04:36:27.423Z,54.80
2018-03-06T04:38:56.445Z,56.55
2018-03-06T04:41:24.704Z,58.15
2018-03-06T04:43:53.726Z,55.38
2018-03-06T04:46:21.986Z,56.45
2018-03-06T04:48:50.241Z,52.17
2018-03-06T04:51:19.263Z,55.60
2018-03-06T04:53:47.511Z,53.80
2018-03-06T04:56:16.543Z,56.95
2018-03-06T04:58:44.803Z,51.60
2018-03-06T05:01:13.063Z,52.97
2018-03-06T05:03:42.086Z,55.05
2018-03-06T05:06:10.348Z,54.63
2018-03-06T05:08:38.607Z,53.47
2018-03-06T05:11:06.953Z,52.13
2018-03-06T05:13:35.164Z,53.70
2018-03-06T05:16:03.416Z,56.50
2018-03-06T05:18:32.445Z,56.25
2018-03-06T05:21:00.697Z,57.33
2018-03-06T05:23:29.736Z,56.55
2018-03-06T05:25:57.986Z,56.58
2018-03-06T05:28:26.254Z,54.72
2018-03-06T05:30:54.505Z,54.70
2018-03-06T05:33:23.533Z,56.63
2018-03-06T05:35:51.789Z,52.75
2018-03-06T05:38:20.821Z,55.47
2018-03-06T05:40:49.096Z,58.67
2018-03-06T05:43:17.359Z,56.53
2018-03-06T05:45:45.610Z,58.42
2018-03-06T05:48:14.642Z,54.35
2018-03-06T05:50:42.897Z,54.15
2018-03-06T05:53:11.166Z,56.92
2018-03-06T05:55:39.417Z,55.25
2018-03-06T05:58:08.447Z,51.55
2018-03-06T06:00:36.708Z,52.83
2018-03-06T06:03:05.853Z,51.03
2018-03-06T06:05:34.109Z,48.83
2018-03-06T06:08:02.375Z,55.05
2018-03-06T06:10:30.626Z,50.55
2018-03-06T06:12:58.894Z,53.87
2018-03-06T06:15:27.913Z,48.90
2018-03-06T06:17:56.182Z,51.37
2018-03-06T06:20:24.433Z,51.00
2018-03-06T06:22:53.464Z,48.40
2018-03-06T06:25:21.723Z,48.30
2018-03-06T06:27:49.990Z,48.35
2018-03-06T06:30:18.245Z,47.22
2018-03-06T06:32:47.285Z,46.90
2018-03-06T06:35:15.547Z,47.47
2018-03-06T06:37:43.810Z,50.58
2018-03-06T06:40:12.066Z,51.25
2018-03-06T06:42:41.161Z,47.30
2018-03-06T06:45:09.370Z,47.20
2018-03-06T06:47:37.625Z,45.85
2018-03-06T06:50:05.899Z,49.45
2018-03-06T06:52:34.919Z,49.03
2018-03-06T06:55:03.181Z,47.30
2018-03-06T06:57:31.446Z,45.85
2018-03-06T07:00:00.471Z,46.35
2018-03-06T07:02:28.730Z,49.15
2018-03-06T07:04:56.995Z,50.75
2018-03-06T07:07:25.254Z,49.45
2018-03-06T07:09:54.287Z,45.60
2018-03-06T07:12:22.541Z,47.50
2018-03-06T07:14:50.807Z,44.60
2018-03-06T07:19:53.367Z,44.92
2018-03-06T07:22:21.621Z,42.80
2018-03-06T07:24:49.877Z,45.00
2018-03-06T07:27:18.153Z,48.95
2018-03-06T07:29:46.394Z,44.95
2018-03-06T07:32:15.412Z,43.50
2018-03-06T07:34:43.675Z,46.15
2018-03-06T07:37:11.926Z,47.55
2018-03-06T07:39:40.179Z,46.78
2018-03-06T07:42:08.443Z,45.92
2018-03-06T07:44:36.698Z,45.72
2018-03-06T07:47:09.594Z,43.17
2018-03-06T07:49:37.852Z,43.03
2018-03-06T07:52:06.121Z,43.40
2018-03-06T07:54:34.366Z,46.30
2018-03-06T07:57:03.394Z,46.20
2018-03-06T07:59:31.655Z,44.45
2018-03-06T08:01:59.914Z,44.47
2018-03-06T08:04:28.949Z,47.38
2018-03-06T08:06:57.196Z,45.45
2018-03-06T08:09:26.207Z,43.10
2018-03-06T08:11:54.475Z,48.38
2018-03-06T08:14:22.726Z,47.60
2018-03-06T08:16:51.750Z,44.13
2018-03-06T08:19:20.004Z,47.80
2018-03-06T08:21:49.029Z,49.83
2018-03-06T08:24:17.281Z,47.75
2018-03-06T08:26:45.545Z,49.08
2018-03-06T08:29:14.569Z,52.38
2018-03-06T08:31:42.837Z,43.67
2018-03-06T08:34:11.086Z,45.95
2018-03-06T08:36:40.115Z,45.30
2018-03-06T08:39:08.371Z,48.90
2018-03-06T08:41:36.627Z,49.73
2018-03-06T08:44:05.645Z,46.60
2018-03-06T08:46:33.903Z,47.92
2018-03-06T08:49:02.910Z,46.13
2018-03-06T08:51:31.182Z,41.25
2018-03-06T08:53:59.440Z,46.63
2018-03-06T08:56:28.458Z,47.50
2018-03-06T08:58:56.720Z,47.72
2018-03-06T09:01:25.737Z,49.05
2018-03-06T09:03:54.009Z,49.13
2018-03-06T09:06:22.255Z,49.88
2018-03-06T09:08:51.291Z,46.70
2018-03-06T09:11:19.547Z,46.42
2018-03-06T09:13:47.812Z,45.30
2018-03-06T09:16:16.072Z,40.00
2018-03-06T09:18:45.095Z,41.22
2018-03-06T09:21:13.346Z,41.97
2018-03-06T09:23:42.386Z,42.95
2018-03-06T09:26:10.635Z,44.07
2018-03-06T09:28:38.891Z,45.03
2018-03-06T09:31:07.903Z,41.47
2018-03-06T09:33:36.158Z,42.67
2018-03-06T09:36:04.407Z,44.20
2018-03-06T09:38:32.660Z,40.57
2018-03-06T09:41:00.911Z,40.67
2018-03-06T09:43:29.163Z,43.97
2018-03-06T09:45:58.169Z,42.23
2018-03-06T09:48:26.428Z,42.37
2018-03-06T09:50:55.441Z,42.77
2018-03-06T09:53:24.466Z,41.93
2018-03-06T09:55:52.711Z,44.23
2018-03-06T09:58:20.964Z,45.47
2018-03-06T10:00:49.205Z,44.90
2018-03-06T10:03:17.445Z,45.17
2018-03-06T10:05:45.710Z,43.57
2018-03-06T10:08:13.958Z,45.80
2018-03-06T10:10:42.220Z,44.03
2018-03-06T10:13:10.469Z,46.93
2018-03-06T10:15:38.715Z,42.70
2018-03-06T10:18:06.963Z,42.40
2018-03-06T10:20:35.214Z,46.90
2018-03-06T10:23:03.453Z,43.20
2018-03-06T10:25:31.723Z,43.10
2018-03-06T10:27:59.965Z,45.57
2018-03-06T10:30:28.224Z,41.87
2018-03-06T10:32:56.474Z,44.03
2018-03-06T10:35:24.731Z,45.47
2018-03-06T10:37:52.980Z,45.07
2018-03-06T10:40:22.013Z,49.90
2018-03-06T10:42:50.255Z,47.90
2018-03-06T10:45:19.274Z,47.63
2018-03-06T10:47:47.526Z,46.67
2018-03-06T10:50:15.781Z,43.50
2018-03-06T10:52:44.810Z,45.67
2018-03-06T10:55:13.062Z,47.70
2018-03-06T10:57:42.081Z,46.13
2018-03-06T11:00:10.334Z,47.80
2018-03-06T11:02:43.186Z,43.37
2018-03-06T11:05:11.433Z,47.40
2018-03-06T11:07:39.684Z,44.50
2018-03-06T11:10:07.927Z,47.37
2018-03-06T11:12:36.947Z,48.70
2018-03-06T11:15:05.202Z,48.87
2018-03-06T11:17:34.230Z,47.40
2018-03-06T11:20:02.477Z,47.97
2018-03-06T11:22:31.491Z,49.27
2018-03-06T11:24:59.748Z,50.20
2018-03-06T11:27:28.766Z,46.67
2018-03-06T11:29:57.006Z,48.73
2018-03-06T11:32:26.023Z,47.20
2018-03-06T11:34:54.265Z,48.67
2018-03-06T11:37:23.286Z,49.00
2018-03-06T11:39:51.535Z,48.30
2018-03-06T11:42:20.602Z,48.57
2018-03-06T11:44:48.803Z,48.10
2018-03-06T11:47:17.055Z,51.00
2018-03-06T11:49:45.308Z,50.37
2018-03-06T11:52:13.562Z,47.40
2018-03-06T11:54:41.807Z,45.77
2018-03-06T11:57:10.055Z,49.30
2018-03-06T11:59:38.304Z,49.63
2018-03-06T12:02:06.570Z,47.77
2018-03-06T12:04:34.807Z,46.23
2018-03-06T12:07:03.065Z,46.57
2018-03-06T12:09:31.317Z,44.00
2018-03-06T12:11:59.576Z,47.10
2018-03-06T12:14:27.829Z,51.33
2018-03-06T12:16:56.858Z,49.60
2018-03-06T12:19:25.103Z,50.20
2018-03-06T12:21:53.366Z,48.13
2018-03-06T12:24:22.369Z,50.40
2018-03-06T12:26:50.626Z,52.47
2018-03-06T12:29:19.651Z,49.47
2018-03-06T12:31:47.898Z,44.70
2018-03-06T12:34:16.913Z,47.30
2018-03-06T12:36:45.172Z,46.97
2018-03-06T12:39:14.180Z,49.00
2018-03-06T12:41:42.435Z,50.03
2018-03-06T12:44:11.442Z,47.87
2018-03-06T12:46:39.699Z,46.17
2018-03-06T12:49:08.713Z,47.10
2018-03-06T12:51:36.982Z,49.23
2018-03-06T12:54:05.993Z,48.90
2018-03-06T12:56:34.253Z,50.90
2018-03-06T12:59:03.263Z,49.10
2018-03-06T13:01:31.510Z,46.97
2018-03-06T13:04:00.522Z,50.00
2018-03-06T13:06:28.757Z,48.53
2018-03-06T13:08:57.015Z,49.33
2018-03-06T13:11:25.261Z,48.13
2018-03-06T13:13:53.515Z,47.60
2018-03-06T13:16:22.527Z,49.20
2018-03-06T13:18:50.779Z,48.00
2018-03-06T13:21:19.795Z,50.50
2018-03-06T13:23:48.039Z,50.17
2018-03-06T13:26:17.045Z,47.03
2018-03-06T13:28:45.309Z,49.93
2018-03-06T13:31:14.319Z,46.20
2018-03-06T13:33:42.570Z,48.27
2018-03-06T13:36:11.582Z,46.83
2018-03-06T13:38:39.841Z,45.57
2018-03-06T13:41:08.858Z,47.57
2018-03-06T13:43:37.114Z,44.90
2018-03-06T13:46:06.129Z,48.83
2018-03-06T13:48:34.380Z,43.17
2018-03-06T13:51:03.400Z,48.13
2018-03-06T13:53:31.659Z,47.33
2018-03-06T13:56:00.672Z,44.00
2018-03-06T13:58:28.927Z,47.60
2018-03-06T14:00:57.940Z,44.80
2018-03-06T14:03:26.206Z,46.57
2018-03-06T14:05:55.195Z,47.00
2018-03-06T14:08:23.459Z,44.97
2018-03-06T14:10:52.477Z,45.23
2018-03-06T14:13:20.726Z,47.70
2018-03-06T14:15:49.742Z,45.57
2018-03-06T14:18:17.994Z,48.20
2018-03-06T14:20:47.011Z,45.80
2018-03-06T14:23:15.262Z,45.87
2018-03-06T14:25:44.273Z,47.03
2018-03-06T14:28:12.528Z,46.30
2018-03-06T14:30:40.762Z,46.70
2018-03-06T14:33:09.064Z,45.93
2018-03-06T14:35:37.278Z,47.80
2018-03-06T14:38:05.522Z,45.47
2018-03-06T14:40:33.774Z,46.80
2018-03-06T14:43:02.024Z,45.17
2018-03-06T14:45:30.287Z,44.70
2018-03-06T14:47:58.525Z,46.17
2018-03-06T14:50:27.546Z,45.20
2018-03-06T14:52:55.805Z,46.97
2018-03-06T14:55:24.851Z,49.57
2018-03-06T14:57:53.067Z,44.60
2018-03-06T15:00:22.099Z,46.37
2018-03-06T15:02:50.336Z,47.27
2018-03-06T15:05:19.357Z,46.43
2018-03-06T15:07:47.602Z,46.70
2018-03-06T15:10:16.625Z,44.73
2018-03-06T15:12:44.874Z,46.70
2018-03-06T15:15:13.889Z,47.87
2018-03-06T15:17:42.137Z,47.63
2018-03-06T15:20:11.158Z,49.40
2018-03-06T15:22:39.410Z,46.83
2018-03-06T15:25:08.429Z,49.17
2018-03-06T15:27:36.680Z,49.07
2018-03-06T15:30:05.698Z,49.40
2018-03-06T15:32:33.949Z,47.67
2018-03-06T15:35:02.981Z,46.80
2018-03-06T15:37:31.216Z,54.47
2018-03-06T15:40:00.233Z,44.83
2018-03-06T15:42:28.493Z,47.90
2018-03-06T15:44:57.498Z,49.93
2018-03-06T15:47:25.759Z,49.53
2018-03-06T15:49:54.771Z,48.80
2018-03-06T15:52:23.026Z,47.57
2018-03-06T15:54:52.042Z,51.80
2018-03-06T15:57:20.299Z,45.20
2018-03-06T15:59:49.314Z,52.43
2018-03-06T16:02:17.578Z,47.00
2018-03-06T16:04:45.824Z,45.97
2018-03-06T16:07:14.078Z,49.33
2018-03-06T16:09:42.329Z,48.67
2018-03-06T16:12:10.594Z,43.23
2018-03-06T16:14:38.849Z,47.10
2018-03-06T16:17:07.871Z,45.30
2018-03-06T16:19:36.122Z,48.60
2018-03-06T16:22:05.135Z,47.90
2018-03-06T16:24:33.379Z,44.17
2018-03-06T16:27:02.407Z,46.87
2018-03-06T16:29:30.657Z,50.33
2018-03-06T16:31:59.673Z,43.50
2018-03-06T16:34:27.918Z,42.43
2018-03-06T16:36:56.932Z,43.17
2018-03-06T16:39:25.212Z,49.47
2018-03-06T16:41:54.203Z,48.33
2018-03-06T16:44:22.454Z,44.40
2018-03-06T16:46:51.469Z,44.93
2018-03-06T16:49:19.750Z,44.37
2018-03-06T16:51:48.732Z,46.83
2018-03-06T16:54:16.994Z,45.97
2018-03-06T16:56:46.019Z,48.80
2018-03-06T16:59:14.269Z,48.80
2018-03-06T17:01:43.284Z,44.43
2018-03-06T17:04:11.533Z,44.33
2018-03-06T17:06:40.556Z,45.10
2018-03-06T17:09:08.799Z,44.60
2018-03-06T17:11:37.805Z,44.07
2018-03-06T17:14:06.057Z,44.10
2018-03-06T17:16:35.086Z,44.27
2018-03-06T17:19:03.347Z,44.80
2018-03-06T17:21:31.598Z,44.30
2018-03-06T17:23:59.854Z,43.27
2018-03-06T17:26:28.104Z,47.53
2018-03-06T17:28:56.360Z,44.53
2018-03-06T17:31:24.608Z,46.23
2018-03-06T17:33:53.622Z,48.37
2018-03-06T17:36:21.882Z,47.60
2018-03-06T17:38:50.891Z,54.57
2018-03-06T17:41:19.138Z,53.80
2018-03-06T17:43:48.203Z,47.00
2018-03-06T17:46:16.417Z,51.57
2018-03-06T17:48:45.445Z,50.30
2018-03-06T17:51:13.699Z,49.57
2018-03-06T17:53:41.951Z,49.50
2018-03-06T17:56:10.983Z,54.40
2018-03-06T17:58:39.241Z,52.25
2018-03-06T18:01:07.494Z,53.77
2018-03-06T18:03:35.731Z,47.27
2018-03-06T18:06:03.986Z,49.90
2018-03-06T18:08:32.247Z,47.90
2018-03-06T18:11:00.507Z,49.20
2018-03-06T18:13:29.529Z,46.50
2018-03-06T18:15:57.782Z,49.27
2018-03-06T18:18:26.044Z,50.03
2018-03-06T18:20:55.068Z,47.40
2018-03-06T18:23:23.318Z,49.90
2018-03-06T18:25:52.344Z,49.28
2018-03-06T18:28:20.600Z,51.03
2018-03-06T18:30:48.859Z,54.27
2018-03-06T18:33:17.871Z,52.07
2018-03-06T18:35:46.127Z,52.57
2018-03-06T18:38:15.151Z,51.00
2018-03-06T18:40:43.409Z,48.93
2018-03-06T18:43:11.675Z,90.63
2018-03-06T18:45:40.685Z,89.90
2018-03-06T18:48:08.941Z,74.90
2018-03-06T18:50:55.787Z,60.10
2018-03-06T18:53:24.054Z,63.13
2018-03-06T18:55:52.316Z,60.67
2018-03-06T18:58:20.583Z,63.90
2018-03-06T19:01:08.023Z,55.67
2018-03-06T19:03:54.123Z,55.00
2018-03-06T19:06:24.773Z,53.50
2018-03-06T19:08:53.030Z,55.57
2018-03-06T19:11:21.300Z,53.40
2018-03-06T19:13:50.310Z,50.88
2018-03-06T19:16:18.566Z,49.05
2018-03-06T19:18:46.826Z,50.07
2018-03-06T19:21:15.856Z,48.22
2018-03-06T19:23:44.175Z,51.80
2018-03-06T19:26:12.441Z,51.25
2018-03-06T19:28:40.701Z,46.78
2018-03-06T19:31:08.966Z,48.13
2018-03-06T19:33:37.223Z,49.75
2018-03-06T19:36:05.485Z,49.60
2018-03-06T19:38:33.743Z,51.60
2018-03-06T19:41:02.779Z,49.55
2018-03-06T19:43:31.030Z,49.53
2018-03-06T19:45:59.293Z,46.97
2018-03-06T19:48:28.322Z,50.90
2018-03-06T19:50:56.583Z,51.50
2018-03-06T19:53:24.847Z,47.33
2018-03-06T19:55:53.862Z,46.83
2018-03-06T19:58:22.114Z,50.00
2018-03-06T20:00:51.143Z,50.57
2018-03-06T20:03:19.404Z,50.78
2018-03-06T20:05:47.666Z,47.20
2018-03-06T20:08:15.926Z,49.28
2018-03-06T20:10:44.973Z,51.40
2018-03-06T20:13:13.231Z,50.45
2018-03-06T20:15:41.483Z,53.10
2018-03-06T20:18:09.748Z,52.10
2018-03-06T20:20:38.762Z,50.60
2018-03-06T20:23:07.039Z,53.07
2018-03-06T20:25:40.849Z,50.10
2018-03-06T20:28:09.109Z,46.80
2018-03-06T20:30:43.575Z,49.27
2018-03-06T20:33:13.170Z,50.40
2018-03-06T20:35:41.410Z,51.10
2018-03-06T20:41:13.314Z,42.27
2018-03-06T20:43:41.568Z,53.20
2018-03-06T20:46:16.064Z,48.17
2018-03-06T20:48:44.355Z,51.77
2018-03-06T20:51:12.645Z,49.87
2018-03-06T20:53:46.553Z,50.17
2018-03-06T20:56:15.573Z,46.97
2018-03-06T20:58:43.847Z,47.37
2018-03-06T21:01:12.099Z,43.40
2018-03-06T21:03:40.403Z,45.70
2018-03-06T21:06:08.657Z,46.63
2018-03-06T21:08:36.949Z,50.07
2018-03-06T21:11:05.188Z,48.60
2018-03-06T21:13:34.213Z,48.07
2018-03-06T21:16:02.465Z,45.70
2018-03-06T21:18:31.486Z,47.50
2018-03-06T21:20:59.740Z,44.50
2018-03-06T21:23:28.010Z,49.90
2018-03-06T21:25:57.027Z,48.17
2018-03-06T21:28:25.285Z,45.43
2018-03-06T21:30:53.539Z,43.37
2018-03-06T21:33:21.791Z,46.90
2018-03-06T21:35:50.041Z,44.90
2018-03-06T21:38:18.298Z,44.97
2018-03-06T21:40:46.578Z,44.53
2018-03-06T21:43:14.830Z,42.97
2018-03-06T21:45:43.080Z,45.53
2018-03-06T21:48:11.346Z,47.17
2018-03-06T21:50:39.597Z,46.33
2018-03-06T21:53:07.842Z,44.63
2018-03-06T21:55:36.089Z,46.70
2018-03-06T21:58:05.124Z,45.13
2018-03-06T22:00:33.373Z,48.03
2018-03-06T22:03:02.385Z,45.83
2018-03-06T22:05:30.642Z,45.40
2018-03-06T22:07:59.663Z,45.57
2018-03-06T22:10:27.948Z,46.37
2018-03-06T22:12:56.203Z,49.30
2018-03-06T22:15:24.457Z,47.27
2018-03-06T22:17:53.482Z,46.77
2018-03-06T22:20:21.740Z,45.60
2018-03-06T22:22:50.039Z,48.20
2018-03-06T22:25:18.304Z,49.80
2018-03-06T22:27:46.559Z,49.33
2018-03-06T22:30:16.301Z,47.10
2018-03-06T22:32:44.612Z,46.60
2018-03-06T22:35:12.952Z,47.10
2018-03-06T22:37:41.292Z,46.90
2018-03-06T22:40:10.412Z,49.33
2018-03-06T22:42:38.696Z,48.70
2018-03-06T22:45:06.959Z,49.73
2018-03-06T22:47:35.235Z,49.10
2018-03-06T22:50:03.494Z,49.30
2018-03-06T22:52:32.521Z,35.87
2018-03-06T22:55:00.788Z,47.43
2018-03-06T22:57:29.089Z,44.00
2018-03-06T22:59:57.433Z,48.70
2018-03-06T23:02:25.721Z,48.17
2018-03-06T23:04:54.022Z,47.03
2018-03-06T23:07:22.333Z,47.30
2018-03-06T23:09:50.592Z,46.53
2018-03-06T23:12:18.872Z,48.27
2018-03-06T23:14:47.129Z,46.13
2018-03-06T23:17:15.405Z,48.13
2018-03-06T23:19:43.664Z,45.50
2018-03-06T23:22:11.942Z,41.30
2018-03-06T23:24:40.194Z,40.93
2018-03-06T23:27:08.489Z,47.47
2018-03-06T23:29:36.746Z,44.20
2018-03-06T23:32:05.002Z,43.00
2018-03-06T23:34:34.022Z,43.40
2018-03-06T23:37:02.280Z,42.40
2018-03-06T23:39:30.555Z,47.23
2018-03-06T23:41:59.579Z,43.77
2018-03-06T23:44:27.849Z,35.30
2018-03-06T23:46:56.104Z,44.80
2018-03-06T23:49:24.366Z,41.10
2018-03-06T23:51:53.397Z,37.33
2018-03-06T23:54:21.660Z,42.63
2018-03-06T23:56:49.928Z,41.47
2018-03-06T23:59:18.188Z,41.53
